sensor_id;sensor_type;location;lat;lon;timestamp;temperature;humidity
27506;DHT22;14939;43.596;1.320;2023-05-29T00:00:46;16.80;87.90
27506;DHT22;14939;43.596;1.320;2023-05-29T00:03:12;16.70;88.40
27506;DHT22;14939;43.596;1.320;2023-05-29T00:05:38;16.70;88.60
27506;DHT22;14939;43.596;1.320;2023-05-29T00:08:04;16.70;88.60
27506;DHT22;14939;43.596;1.320;2023-05-29T00:10:30;16.60;89.30
27506;DHT22;14939;43.596;1.320;2023-05-29T00:12:57;16.50;89.40
27506;DHT22;14939;43.596;1.320;2023-05-29T00:15:22;16.50;89.70
27506;DHT22;14939;43.596;1.320;2023-05-29T00:17:49;16.40;90.20
27506;DHT22;14939;43.596;1.320;2023-05-29T00:20:14;16.40;90.60
27506;DHT22;14939;43.596;1.320;2023-05-29T00:22:40;16.40;90.60
27506;DHT22;14939;43.596;1.320;2023-05-29T00:25:07;16.30;90.60
27506;DHT22;14939;43.596;1.320;2023-05-29T00:27:34;16.30;90.90
27506;DHT22;14939;43.596;1.320;2023-05-29T00:30:00;16.30;91.20
27506;DHT22;14939;43.596;1.320;2023-05-29T00:32:26;16.20;91.30
27506;DHT22;14939;43.596;1.320;2023-05-29T00:34:53;16.20;91.30
27506;DHT22;14939;43.596;1.320;2023-05-29T00:37:19;16.20;91.30
27506;DHT22;14939;43.596;1.320;2023-05-29T00:39:49;16.10;91.80
27506;DHT22;14939;43.596;1.320;2023-05-29T00:42:14;16.10;91.80
27506;DHT22;14939;43.596;1.320;2023-05-29T00:44:40;16.00;91.80
27506;DHT22;14939;43.596;1.320;2023-05-29T00:47:06;16.00;92.00
27506;DHT22;14939;43.596;1.320;2023-05-29T00:49:33;16.10;91.90
27506;DHT22;14939;43.596;1.320;2023-05-29T00:52:00;16.10;91.80
27506;DHT22;14939;43.596;1.320;2023-05-29T00:54:29;16.10;91.90
27506;DHT22;14939;43.596;1.320;2023-05-29T00:56:59;16.10;91.90
27506;DHT22;14939;43.596;1.320;2023-05-29T00:59:27;16.00;92.00
27506;DHT22;14939;43.596;1.320;2023-05-29T01:01:55;16.00;92.20
27506;DHT22;14939;43.596;1.320;2023-05-29T01:04:22;16.00;92.50
27506;DHT22;14939;43.596;1.320;2023-05-29T01:06:49;16.00;92.60
27506;DHT22;14939;43.596;1.320;2023-05-29T01:09:15;15.90;92.70
27506;DHT22;14939;43.596;1.320;2023-05-29T01:11:56;16.00;92.70
27506;DHT22;14939;43.596;1.320;2023-05-29T01:20:08;15.80;93.00
27506;DHT22;14939;43.596;1.320;2023-05-29T01:27:46;15.60;93.50
27506;DHT22;14939;43.596;1.320;2023-05-29T01:30:14;15.50;93.90
27506;DHT22;14939;43.596;1.320;2023-05-29T01:32:41;15.50;94.30
27506;DHT22;14939;43.596;1.320;2023-05-29T01:35:08;15.40;94.20
27506;DHT22;14939;43.596;1.320;2023-05-29T01:37:33;15.40;94.50
27506;DHT22;14939;43.596;1.320;2023-05-29T01:40:00;15.30;94.70
27506;DHT22;14939;43.596;1.320;2023-05-29T01:42:27;15.30;95.20
27506;DHT22;14939;43.596;1.320;2023-05-29T01:44:55;15.30;95.40
27506;DHT22;14939;43.596;1.320;2023-05-29T01:47:21;15.20;95.50
27506;DHT22;14939;43.596;1.320;2023-05-29T01:49:49;15.20;95.90
27506;DHT22;14939;43.596;1.320;2023-05-29T01:52:15;15.30;96.00
27506;DHT22;14939;43.596;1.320;2023-05-29T01:54:41;15.20;96.10
27506;DHT22;14939;43.596;1.320;2023-05-29T01:57:07;15.20;96.10
27506;DHT22;14939;43.596;1.320;2023-05-29T01:59:33;15.20;96.60
27506;DHT22;14939;43.596;1.320;2023-05-29T02:02:09;15.20;96.60
27506;DHT22;14939;43.596;1.320;2023-05-29T02:04:35;15.30;96.60
27506;DHT22;14939;43.596;1.320;2023-05-29T02:07:01;15.30;96.60
27506;DHT22;14939;43.596;1.320;2023-05-29T02:09:27;15.30;96.60
27506;DHT22;14939;43.596;1.320;2023-05-29T02:11:54;15.30;96.60
27506;DHT22;14939;43.596;1.320;2023-05-29T02:14:20;15.30;96.60
27506;DHT22;14939;43.596;1.320;2023-05-29T02:16:45;15.20;96.80
27506;DHT22;14939;43.596;1.320;2023-05-29T02:19:11;15.10;97.10
27506;DHT22;14939;43.596;1.320;2023-05-29T02:21:40;15.10;97.30
27506;DHT22;14939;43.596;1.320;2023-05-29T02:24:08;15.20;97.20
27506;DHT22;14939;43.596;1.320;2023-05-29T02:26:34;15.20;97.20
27506;DHT22;14939;43.596;1.320;2023-05-29T02:29:02;15.20;97.20
27506;DHT22;14939;43.596;1.320;2023-05-29T02:31:28;15.30;97.30
27506;DHT22;14939;43.596;1.320;2023-05-29T02:33:54;15.30;97.20
27506;DHT22;14939;43.596;1.320;2023-05-29T02:36:19;15.30;97.30
27506;DHT22;14939;43.596;1.320;2023-05-29T02:38:45;15.30;97.30
27506;DHT22;14939;43.596;1.320;2023-05-29T02:41:11;15.20;97.30
27506;DHT22;14939;43.596;1.320;2023-05-29T02:43:37;15.20;97.30
27506;DHT22;14939;43.596;1.320;2023-05-29T02:46:02;15.20;97.40
27506;DHT22;14939;43.596;1.320;2023-05-29T02:48:28;15.10;97.40
27506;DHT22;14939;43.596;1.320;2023-05-29T02:50:54;15.10;97.50
27506;DHT22;14939;43.596;1.320;2023-05-29T02:53:20;15.10;97.70
27506;DHT22;14939;43.596;1.320;2023-05-29T02:55:46;15.10;97.60
27506;DHT22;14939;43.596;1.320;2023-05-29T02:58:12;15.10;97.60
27506;DHT22;14939;43.596;1.320;2023-05-29T03:00:38;15.10;97.50
27506;DHT22;14939;43.596;1.320;2023-05-29T03:03:04;15.10;97.50
27506;DHT22;14939;43.596;1.320;2023-05-29T03:05:30;15.00;97.80
27506;DHT22;14939;43.596;1.320;2023-05-29T03:07:55;15.00;97.80
27506;DHT22;14939;43.596;1.320;2023-05-29T03:10:21;15.00;97.90
27506;DHT22;14939;43.596;1.320;2023-05-29T03:12:47;15.00;97.90
27506;DHT22;14939;43.596;1.320;2023-05-29T03:15:13;14.90;98.00
27506;DHT22;14939;43.596;1.320;2023-05-29T03:17:39;14.80;98.10
27506;DHT22;14939;43.596;1.320;2023-05-29T03:20:06;14.80;98.40
27506;DHT22;14939;43.596;1.320;2023-05-29T03:22:36;14.80;98.70
27506;DHT22;14939;43.596;1.320;2023-05-29T03:25:03;14.70;98.90
27506;DHT22;14939;43.596;1.320;2023-05-29T03:27:29;14.70;99.10
27506;DHT22;14939;43.596;1.320;2023-05-29T03:29:56;14.60;99.10
27506;DHT22;14939;43.596;1.320;2023-05-29T03:32:21;14.60;99.30
27506;DHT22;14939;43.596;1.320;2023-05-29T03:34:47;14.50;99.50
27506;DHT22;14939;43.596;1.320;2023-05-29T03:37:13;14.50;99.30
27506;DHT22;14939;43.596;1.320;2023-05-29T03:39:39;14.40;99.60
27506;DHT22;14939;43.596;1.320;2023-05-29T03:42:05;14.40;99.90
27506;DHT22;14939;43.596;1.320;2023-05-29T03:44:42;14.40;99.90
27506;DHT22;14939;43.596;1.320;2023-05-29T03:47:08;14.50;99.90
27506;DHT22;14939;43.596;1.320;2023-05-29T03:49:34;14.50;99.90
27506;DHT22;14939;43.596;1.320;2023-05-29T03:52:00;14.50;99.90
27506;DHT22;14939;43.596;1.320;2023-05-29T03:54:25;14.50;99.90
27506;DHT22;14939;43.596;1.320;2023-05-29T03:56:51;14.40;99.90
27506;DHT22;14939;43.596;1.320;2023-05-29T03:59:17;14.30;99.90
27506;DHT22;14939;43.596;1.320;2023-05-29T04:01:42;14.30;99.90
27506;DHT22;14939;43.596;1.320;2023-05-29T04:04:08;14.20;99.90
27506;DHT22;14939;43.596;1.320;2023-05-29T04:06:34;14.20;99.90
27506;DHT22;14939;43.596;1.320;2023-05-29T04:09:06;14.30;99.90
27506;DHT22;14939;43.596;1.320;2023-05-29T04:11:33;14.20;99.90
27506;DHT22;14939;43.596;1.320;2023-05-29T04:14:02;14.10;99.90
27506;DHT22;14939;43.596;1.320;2023-05-29T04:16:28;14.00;99.90
27506;DHT22;14939;43.596;1.320;2023-05-29T04:18:54;14.00;99.90
27506;DHT22;14939;43.596;1.320;2023-05-29T04:21:21;13.90;99.90
27506;DHT22;14939;43.596;1.320;2023-05-29T04:23:46;13.90;99.90
27506;DHT22;14939;43.596;1.320;2023-05-29T04:26:12;14.00;99.90
27506;DHT22;14939;43.596;1.320;2023-05-29T04:28:38;13.90;99.90
27506;DHT22;14939;43.596;1.320;2023-05-29T04:31:04;13.90;99.90
27506;DHT22;14939;43.596;1.320;2023-05-29T04:33:31;13.90;99.90
27506;DHT22;14939;43.596;1.320;2023-05-29T04:35:57;14.00;99.90
27506;DHT22;14939;43.596;1.320;2023-05-29T04:38:26;13.90;99.90
27506;DHT22;14939;43.596;1.320;2023-05-29T04:40:52;13.90;99.90
27506;DHT22;14939;43.596;1.320;2023-05-29T04:43:24;13.90;99.90
27506;DHT22;14939;43.596;1.320;2023-05-29T04:45:52;13.90;99.90
27506;DHT22;14939;43.596;1.320;2023-05-29T04:48:18;13.90;99.90
27506;DHT22;14939;43.596;1.320;2023-05-29T04:50:43;13.90;99.90
27506;DHT22;14939;43.596;1.320;2023-05-29T04:53:10;14.00;99.90
27506;DHT22;14939;43.596;1.320;2023-05-29T04:55:36;14.00;99.90
27506;DHT22;14939;43.596;1.320;2023-05-29T04:58:02;14.10;99.90
27506;DHT22;14939;43.596;1.320;2023-05-29T05:00:28;14.10;99.90
27506;DHT22;14939;43.596;1.320;2023-05-29T05:02:53;14.20;99.90
27506;DHT22;14939;43.596;1.320;2023-05-29T05:05:19;14.20;99.90
27506;DHT22;14939;43.596;1.320;2023-05-29T05:07:45;14.30;99.90
27506;DHT22;14939;43.596;1.320;2023-05-29T05:10:11;14.30;99.90
27506;DHT22;14939;43.596;1.320;2023-05-29T05:12:37;14.40;99.90
27506;DHT22;14939;43.596;1.320;2023-05-29T05:15:03;14.50;99.90
27506;DHT22;14939;43.596;1.320;2023-05-29T05:17:29;14.50;99.90
27506;DHT22;14939;43.596;1.320;2023-05-29T05:19:54;14.50;99.90
27506;DHT22;14939;43.596;1.320;2023-05-29T05:22:20;14.60;99.90
27506;DHT22;14939;43.596;1.320;2023-05-29T05:24:46;14.70;99.90
27506;DHT22;14939;43.596;1.320;2023-05-29T05:27:13;14.80;99.90
27506;DHT22;14939;43.596;1.320;2023-05-29T05:29:38;14.90;99.90
27506;DHT22;14939;43.596;1.320;2023-05-29T05:32:04;15.00;99.80
27506;DHT22;14939;43.596;1.320;2023-05-29T05:34:30;15.10;99.40
27506;DHT22;14939;43.596;1.320;2023-05-29T05:36:56;15.10;99.40
27506;DHT22;14939;43.596;1.320;2023-05-29T05:39:21;15.20;99.00
27506;DHT22;14939;43.596;1.320;2023-05-29T05:41:47;15.30;98.60
27506;DHT22;14939;43.596;1.320;2023-05-29T05:44:13;15.30;98.50
27506;DHT22;14939;43.596;1.320;2023-05-29T05:46:39;15.40;98.20
27506;DHT22;14939;43.596;1.320;2023-05-29T05:49:04;15.50;98.20
27506;DHT22;14939;43.596;1.320;2023-05-29T05:51:30;15.60;98.10
27506;DHT22;14939;43.596;1.320;2023-05-29T05:53:56;15.60;97.60
27506;DHT22;14939;43.596;1.320;2023-05-29T05:56:22;15.70;97.50
27506;DHT22;14939;43.596;1.320;2023-05-29T05:58:47;15.70;97.10
27506;DHT22;14939;43.596;1.320;2023-05-29T06:01:15;15.80;96.90
27506;DHT22;14939;43.596;1.320;2023-05-29T06:03:41;15.80;97.00
27506;DHT22;14939;43.596;1.320;2023-05-29T06:06:06;15.90;96.70
27506;DHT22;14939;43.596;1.320;2023-05-29T06:08:34;15.90;96.50
27506;DHT22;14939;43.596;1.320;2023-05-29T06:10:59;16.00;96.60
27506;DHT22;14939;43.596;1.320;2023-05-29T06:13:25;16.10;96.50
27506;DHT22;14939;43.596;1.320;2023-05-29T06:15:51;16.20;96.20
27506;DHT22;14939;43.596;1.320;2023-05-29T06:18:17;16.30;96.10
27506;DHT22;14939;43.596;1.320;2023-05-29T06:20:42;16.30;95.70
27506;DHT22;14939;43.596;1.320;2023-05-29T06:23:08;16.40;95.80
27506;DHT22;14939;43.596;1.320;2023-05-29T06:25:34;16.40;95.50
27506;DHT22;14939;43.596;1.320;2023-05-29T06:28:00;16.50;95.30
27506;DHT22;14939;43.596;1.320;2023-05-29T06:30:26;16.60;94.70
27506;DHT22;14939;43.596;1.320;2023-05-29T06:32:52;16.60;94.10
27506;DHT22;14939;43.596;1.320;2023-05-29T06:35:17;16.70;94.50
27506;DHT22;14939;43.596;1.320;2023-05-29T06:37:44;16.80;94.30
27506;DHT22;14939;43.596;1.320;2023-05-29T06:40:11;16.90;94.20
27506;DHT22;14939;43.596;1.320;2023-05-29T06:42:37;16.90;93.80
27506;DHT22;14939;43.596;1.320;2023-05-29T06:45:03;17.00;93.40
27506;DHT22;14939;43.596;1.320;2023-05-29T06:47:29;17.00;93.40
27506;DHT22;14939;43.596;1.320;2023-05-29T06:49:54;17.10;93.00
27506;DHT22;14939;43.596;1.320;2023-05-29T06:52:20;17.10;93.10
27506;DHT22;14939;43.596;1.320;2023-05-29T06:54:46;17.20;92.70
27506;DHT22;14939;43.596;1.320;2023-05-29T06:57:12;17.20;92.50
27506;DHT22;14939;43.596;1.320;2023-05-29T06:59:38;17.20;92.60
27506;DHT22;14939;43.596;1.320;2023-05-29T07:02:03;17.30;92.60
27506;DHT22;14939;43.596;1.320;2023-05-29T07:04:29;17.40;92.40
27506;DHT22;14939;43.596;1.320;2023-05-29T07:06:55;17.60;92.10
27506;DHT22;14939;43.596;1.320;2023-05-29T07:09:20;17.70;91.90
27506;DHT22;14939;43.596;1.320;2023-05-29T07:11:46;17.80;91.20
27506;DHT22;14939;43.596;1.320;2023-05-29T07:14:12;17.90;90.80
27506;DHT22;14939;43.596;1.320;2023-05-29T07:16:37;18.00;91.00
27506;DHT22;14939;43.596;1.320;2023-05-29T07:19:03;18.10;90.50
27506;DHT22;14939;43.596;1.320;2023-05-29T07:21:29;18.10;90.00
27506;DHT22;14939;43.596;1.320;2023-05-29T07:23:56;18.10;90.00
27506;DHT22;14939;43.596;1.320;2023-05-29T07:26:22;18.30;91.20
27506;DHT22;14939;43.596;1.320;2023-05-29T07:28:48;18.40;90.00
27506;DHT22;14939;43.596;1.320;2023-05-29T07:31:14;18.50;88.80
27506;DHT22;14939;43.596;1.320;2023-05-29T07:33:40;18.60;89.10
27506;DHT22;14939;43.596;1.320;2023-05-29T07:36:07;18.60;86.70
27506;DHT22;14939;43.596;1.320;2023-05-29T07:38:33;18.60;87.30
27506;DHT22;14939;43.596;1.320;2023-05-29T07:40:58;18.70;87.50
27506;DHT22;14939;43.596;1.320;2023-05-29T07:43:24;18.80;86.10
27506;DHT22;14939;43.596;1.320;2023-05-29T07:45:50;18.80;85.90
27506;DHT22;14939;43.596;1.320;2023-05-29T07:48:16;18.90;86.60
27506;DHT22;14939;43.596;1.320;2023-05-29T07:50:41;19.00;85.20
27506;DHT22;14939;43.596;1.320;2023-05-29T07:53:07;19.00;84.70
27506;DHT22;14939;43.596;1.320;2023-05-29T07:55:34;19.00;84.10
27506;DHT22;14939;43.596;1.320;2023-05-29T07:58:00;19.00;82.90
27506;DHT22;14939;43.596;1.320;2023-05-29T08:00:27;19.10;83.30
27506;DHT22;14939;43.596;1.320;2023-05-29T08:03:18;19.20;82.50
27506;DHT22;14939;43.596;1.320;2023-05-29T08:05:44;19.30;82.60
27506;DHT22;14939;43.596;1.320;2023-05-29T08:08:10;19.40;82.60
27506;DHT22;14939;43.596;1.320;2023-05-29T08:10:38;19.40;81.70
27506;DHT22;14939;43.596;1.320;2023-05-29T08:13:04;19.40;80.90
27506;DHT22;14939;43.596;1.320;2023-05-29T08:15:30;19.50;80.20
27506;DHT22;14939;43.596;1.320;2023-05-29T08:17:57;19.70;80.00
27506;DHT22;14939;43.596;1.320;2023-05-29T08:20:22;19.70;80.30
27506;DHT22;14939;43.596;1.320;2023-05-29T08:22:48;19.90;80.10
27506;DHT22;14939;43.596;1.320;2023-05-29T08:25:14;20.00;80.00
27506;DHT22;14939;43.596;1.320;2023-05-29T08:27:39;20.00;79.30
27506;DHT22;14939;43.596;1.320;2023-05-29T08:30:06;20.10;79.70
27506;DHT22;14939;43.596;1.320;2023-05-29T08:32:31;20.20;78.60
27506;DHT22;14939;43.596;1.320;2023-05-29T08:34:57;20.20;78.70
27506;DHT22;14939;43.596;1.320;2023-05-29T08:37:22;20.20;79.40
27506;DHT22;14939;43.596;1.320;2023-05-29T08:39:50;20.30;78.00
27506;DHT22;14939;43.596;1.320;2023-05-29T08:42:29;20.40;78.40
27506;DHT22;14939;43.596;1.320;2023-05-29T08:44:57;20.60;76.90
27506;DHT22;14939;43.596;1.320;2023-05-29T08:47:26;20.80;81.50
27506;DHT22;14939;43.596;1.320;2023-05-29T08:49:53;21.10;76.00
27506;DHT22;14939;43.596;1.320;2023-05-29T08:52:22;21.10;72.20
27506;DHT22;14939;43.596;1.320;2023-05-29T08:54:49;21.10;73.50
27506;DHT22;14939;43.596;1.320;2023-05-29T08:57:15;21.10;71.30
27506;DHT22;14939;43.596;1.320;2023-05-29T08:59:44;21.00;72.00
27506;DHT22;14939;43.596;1.320;2023-05-29T09:02:11;21.10;73.30
27506;DHT22;14939;43.596;1.320;2023-05-29T09:04:37;21.30;71.90
27506;DHT22;14939;43.596;1.320;2023-05-29T09:07:04;21.10;71.30
27506;DHT22;14939;43.596;1.320;2023-05-29T09:09:31;21.20;72.50
27506;DHT22;14939;43.596;1.320;2023-05-29T09:11:57;21.10;71.90
27506;DHT22;14939;43.596;1.320;2023-05-29T09:17:03;21.40;72.50
27506;DHT22;14939;43.596;1.320;2023-05-29T09:19:29;21.50;71.00
27506;DHT22;14939;43.596;1.320;2023-05-29T09:22:05;21.40;67.80
27506;DHT22;14939;43.596;1.320;2023-05-29T09:24:35;21.40;68.80
27506;DHT22;14939;43.596;1.320;2023-05-29T09:27:04;21.50;68.40
27506;DHT22;14939;43.596;1.320;2023-05-29T09:29:31;21.60;66.60
27506;DHT22;14939;43.596;1.320;2023-05-29T09:31:58;21.70;64.00
27506;DHT22;14939;43.596;1.320;2023-05-29T09:34:24;21.60;64.10
27506;DHT22;14939;43.596;1.320;2023-05-29T09:36:58;21.60;64.60
27506;DHT22;14939;43.596;1.320;2023-05-29T09:39:28;21.90;65.80
27506;DHT22;14939;43.596;1.320;2023-05-29T09:41:53;21.90;61.40
27506;DHT22;14939;43.596;1.320;2023-05-29T09:44:19;21.90;60.50
27506;DHT22;14939;43.596;1.320;2023-05-29T09:46:48;21.90;62.10
27506;DHT22;14939;43.596;1.320;2023-05-29T09:49:14;22.00;60.90
27506;DHT22;14939;43.596;1.320;2023-05-29T09:51:42;22.30;62.50
27506;DHT22;14939;43.596;1.320;2023-05-29T09:54:16;22.50;60.40
27506;DHT22;14939;43.596;1.320;2023-05-29T09:56:43;22.70;60.10
27506;DHT22;14939;43.596;1.320;2023-05-29T09:59:14;22.70;59.20
27506;DHT22;14939;43.596;1.320;2023-05-29T10:01:43;22.60;58.10
27506;DHT22;14939;43.596;1.320;2023-05-29T10:04:10;22.60;57.50
27506;DHT22;14939;43.596;1.320;2023-05-29T10:06:38;22.60;57.70
27506;DHT22;14939;43.596;1.320;2023-05-29T10:09:06;22.60;56.70
27506;DHT22;14939;43.596;1.320;2023-05-29T10:11:35;22.60;57.40
27506;DHT22;14939;43.596;1.320;2023-05-29T10:14:02;22.70;59.00
27506;DHT22;14939;43.596;1.320;2023-05-29T10:16:29;22.70;58.80
27506;DHT22;14939;43.596;1.320;2023-05-29T10:18:59;22.90;58.00
27506;DHT22;14939;43.596;1.320;2023-05-29T10:21:27;22.80;57.70
27506;DHT22;14939;43.596;1.320;2023-05-29T10:23:54;22.90;60.00
27506;DHT22;14939;43.596;1.320;2023-05-29T10:26:24;23.00;60.30
27506;DHT22;14939;43.596;1.320;2023-05-29T10:36:46;23.20;58.90
27506;DHT22;14939;43.596;1.320;2023-05-29T10:39:15;23.20;57.80
27506;DHT22;14939;43.596;1.320;2023-05-29T10:41:41;23.20;56.30
27506;DHT22;14939;43.596;1.320;2023-05-29T10:49:24;23.80;56.50
27506;DHT22;14939;43.596;1.320;2023-05-29T10:51:50;23.90;55.20
27506;DHT22;14939;43.596;1.320;2023-05-29T10:54:21;23.90;54.50
27506;DHT22;14939;43.596;1.320;2023-05-29T10:56:57;23.80;53.30
27506;DHT22;14939;43.596;1.320;2023-05-29T10:59:23;23.90;52.20
27506;DHT22;14939;43.596;1.320;2023-05-29T11:01:55;24.00;53.90
27506;DHT22;14939;43.596;1.320;2023-05-29T11:06:52;24.00;49.40
27506;DHT22;14939;43.596;1.320;2023-05-29T11:09:37;23.90;49.50
27506;DHT22;14939;43.596;1.320;2023-05-29T11:15:09;24.10;48.30
27506;DHT22;14939;43.596;1.320;2023-05-29T11:20:09;24.50;47.30
27506;DHT22;14939;43.596;1.320;2023-05-29T11:25:14;24.50;44.30
27506;DHT22;14939;43.596;1.320;2023-05-29T11:27:42;24.50;45.00
27506;DHT22;14939;43.596;1.320;2023-05-29T11:30:08;24.60;43.70
27506;DHT22;14939;43.596;1.320;2023-05-29T11:32:36;24.60;45.60
27506;DHT22;14939;43.596;1.320;2023-05-29T11:35:07;24.80;46.20
27506;DHT22;14939;43.596;1.320;2023-05-29T11:37:38;25.00;44.20
27506;DHT22;14939;43.596;1.320;2023-05-29T11:40:05;25.00;40.10
27506;DHT22;14939;43.596;1.320;2023-05-29T11:42:31;25.10;42.00
27506;DHT22;14939;43.596;1.320;2023-05-29T11:45:18;24.80;45.10
27506;DHT22;14939;43.596;1.320;2023-05-29T11:47:57;24.80;45.40
27506;DHT22;14939;43.596;1.320;2023-05-29T11:50:27;24.80;44.90
27506;DHT22;14939;43.596;1.320;2023-05-29T11:52:55;25.20;47.10
27506;DHT22;14939;43.596;1.320;2023-05-29T11:55:21;25.40;46.70
27506;DHT22;14939;43.596;1.320;2023-05-29T11:57:55;25.40;46.20
27506;DHT22;14939;43.596;1.320;2023-05-29T12:00:21;25.30;47.50
27506;DHT22;14939;43.596;1.320;2023-05-29T12:02:48;25.40;48.20
27506;DHT22;14939;43.596;1.320;2023-05-29T12:05:16;25.30;48.20
27506;DHT22;14939;43.596;1.320;2023-05-29T12:07:50;25.20;46.20
27506;DHT22;14939;43.596;1.320;2023-05-29T12:10:18;25.50;47.00
27506;DHT22;14939;43.596;1.320;2023-05-29T12:12:56;25.50;48.10
27506;DHT22;14939;43.596;1.320;2023-05-29T12:15:22;25.50;48.20
27506;DHT22;14939;43.596;1.320;2023-05-29T12:17:49;25.40;48.20
27506;DHT22;14939;43.596;1.320;2023-05-29T12:20:16;25.60;48.90
27506;DHT22;14939;43.596;1.320;2023-05-29T12:22:44;25.40;48.70
27506;DHT22;14939;43.596;1.320;2023-05-29T12:25:17;25.60;48.20
27506;DHT22;14939;43.596;1.320;2023-05-29T12:27:45;25.60;47.60
27506;DHT22;14939;43.596;1.320;2023-05-29T12:30:21;25.60;46.80
27506;DHT22;14939;43.596;1.320;2023-05-29T12:32:51;25.50;48.80
27506;DHT22;14939;43.596;1.320;2023-05-29T12:35:19;25.40;47.10
27506;DHT22;14939;43.596;1.320;2023-05-29T12:40:21;25.50;46.20
27506;DHT22;14939;43.596;1.320;2023-05-29T12:42:48;25.70;45.10
27506;DHT22;14939;43.596;1.320;2023-05-29T12:45:14;25.50;45.70
27506;DHT22;14939;43.596;1.320;2023-05-29T12:47:51;25.60;45.30
27506;DHT22;14939;43.596;1.320;2023-05-29T12:53:08;25.30;44.40
27506;DHT22;14939;43.596;1.320;2023-05-29T12:55:36;25.60;46.50
27506;DHT22;14939;43.596;1.320;2023-05-29T12:58:03;25.80;45.30
27506;DHT22;14939;43.596;1.320;2023-05-29T13:00:29;26.00;43.30
27506;DHT22;14939;43.596;1.320;2023-05-29T13:02:56;26.10;45.00
27506;DHT22;14939;43.596;1.320;2023-05-29T13:05:21;26.30;42.20
27506;DHT22;14939;43.596;1.320;2023-05-29T13:07:49;26.20;41.70
27506;DHT22;14939;43.596;1.320;2023-05-29T13:10:16;25.90;42.60
27506;DHT22;14939;43.596;1.320;2023-05-29T13:12:42;25.70;42.90
27506;DHT22;14939;43.596;1.320;2023-05-29T13:15:10;25.60;44.20
27506;DHT22;14939;43.596;1.320;2023-05-29T13:17:36;25.70;44.00
27506;DHT22;14939;43.596;1.320;2023-05-29T13:20:01;25.90;42.30
27506;DHT22;14939;43.596;1.320;2023-05-29T13:22:27;25.80;41.00
27506;DHT22;14939;43.596;1.320;2023-05-29T13:24:59;26.00;40.00
27506;DHT22;14939;43.596;1.320;2023-05-29T13:27:26;26.30;40.20
27506;DHT22;14939;43.596;1.320;2023-05-29T13:29:52;26.30;37.50
27506;DHT22;14939;43.596;1.320;2023-05-29T13:32:18;26.30;36.70
27506;DHT22;14939;43.596;1.320;2023-05-29T13:34:45;26.00;36.80
27506;DHT22;14939;43.596;1.320;2023-05-29T13:37:10;26.00;38.00
27506;DHT22;14939;43.596;1.320;2023-05-29T13:39:36;26.00;36.50
27506;DHT22;14939;43.596;1.320;2023-05-29T13:42:02;26.10;35.40
27506;DHT22;14939;43.596;1.320;2023-05-29T13:44:27;26.30;34.00
27506;DHT22;14939;43.596;1.320;2023-05-29T13:46:53;26.60;35.40
27506;DHT22;14939;43.596;1.320;2023-05-29T13:49:19;26.60;32.90
27506;DHT22;14939;43.596;1.320;2023-05-29T13:51:45;26.60;30.90
27506;DHT22;14939;43.596;1.320;2023-05-29T13:54:12;26.70;31.60
27506;DHT22;14939;43.596;1.320;2023-05-29T13:56:38;26.80;30.80
27506;DHT22;14939;43.596;1.320;2023-05-29T13:59:04;26.70;29.00
27506;DHT22;14939;43.596;1.320;2023-05-29T14:01:34;26.80;28.00
27506;DHT22;14939;43.596;1.320;2023-05-29T14:04:00;26.70;28.10
27506;DHT22;14939;43.596;1.320;2023-05-29T14:06:26;26.70;28.00
27506;DHT22;14939;43.596;1.320;2023-05-29T14:08:52;26.70;27.20
27506;DHT22;14939;43.596;1.320;2023-05-29T14:11:18;26.90;27.60
27506;DHT22;14939;43.596;1.320;2023-05-29T14:13:44;27.00;24.70
27506;DHT22;14939;43.596;1.320;2023-05-29T14:16:10;26.90;26.20
27506;DHT22;14939;43.596;1.320;2023-05-29T14:18:35;26.90;26.50
27506;DHT22;14939;43.596;1.320;2023-05-29T14:21:01;26.90;26.50
27506;DHT22;14939;43.596;1.320;2023-05-29T14:23:26;26.90;28.20
27506;DHT22;14939;43.596;1.320;2023-05-29T14:25:52;27.10;27.30
27506;DHT22;14939;43.596;1.320;2023-05-29T14:28:18;27.30;27.90
27506;DHT22;14939;43.596;1.320;2023-05-29T14:30:43;27.50;27.70
27506;DHT22;14939;43.596;1.320;2023-05-29T14:33:09;27.40;27.50
27506;DHT22;14939;43.596;1.320;2023-05-29T14:35:35;27.30;26.30
27506;DHT22;14939;43.596;1.320;2023-05-29T14:38:01;27.70;30.00
27506;DHT22;14939;43.596;1.320;2023-05-29T14:40:26;28.00;28.60
27506;DHT22;14939;43.596;1.320;2023-05-29T14:42:52;28.20;28.80
27506;DHT22;14939;43.596;1.320;2023-05-29T14:45:18;28.60;26.90
27506;DHT22;14939;43.596;1.320;2023-05-29T14:47:43;28.70;26.80
27506;DHT22;14939;43.596;1.320;2023-05-29T14:50:09;31.00;24.50
27506;DHT22;14939;43.596;1.320;2023-05-29T14:52:35;34.50;18.10
27506;DHT22;14939;43.596;1.320;2023-05-29T14:55:04;35.70;14.60
27506;DHT22;14939;43.596;1.320;2023-05-29T14:57:31;36.40;12.20
27506;DHT22;14939;43.596;1.320;2023-05-29T15:00:04;37.20;10.30
27506;DHT22;14939;43.596;1.320;2023-05-29T15:02:31;38.20;7.80
27506;DHT22;14939;43.596;1.320;2023-05-29T15:04:57;38.50;5.10
27506;DHT22;14939;43.596;1.320;2023-05-29T15:07:23;39.00;4.20
27506;DHT22;14939;43.596;1.320;2023-05-29T15:09:48;39.70;3.00
27506;DHT22;14939;43.596;1.320;2023-05-29T15:12:14;39.70;2.70
27506;DHT22;14939;43.596;1.320;2023-05-29T15:14:40;39.50;2.30
27506;DHT22;14939;43.596;1.320;2023-05-29T15:17:05;38.50;2.90
27506;DHT22;14939;43.596;1.320;2023-05-29T15:19:31;38.70;2.30
27506;DHT22;14939;43.596;1.320;2023-05-29T15:21:57;38.60;2.90
27506;DHT22;14939;43.596;1.320;2023-05-29T15:24:23;38.40;2.60
27506;DHT22;14939;43.596;1.320;2023-05-29T15:26:49;38.30;2.80
27506;DHT22;14939;43.596;1.320;2023-05-29T15:29:15;36.70;6.40
27506;DHT22;14939;43.596;1.320;2023-05-29T15:31:41;37.30;5.90
27506;DHT22;14939;43.596;1.320;2023-05-29T15:34:07;37.80;4.20
27506;DHT22;14939;43.596;1.320;2023-05-29T15:36:33;36.40;3.80
27506;DHT22;14939;43.596;1.320;2023-05-29T15:38:58;34.10;5.80
27506;DHT22;14939;43.596;1.320;2023-05-29T15:41:24;32.10;9.30
27506;DHT22;14939;43.596;1.320;2023-05-29T15:43:54;30.30;10.10
27506;DHT22;14939;43.596;1.320;2023-05-29T15:46:20;29.50;11.60
27506;DHT22;14939;43.596;1.320;2023-05-29T15:48:46;29.70;11.40
27506;DHT22;14939;43.596;1.320;2023-05-29T15:51:12;32.80;8.20
27506;DHT22;14939;43.596;1.320;2023-05-29T15:53:38;34.20;7.20
27506;DHT22;14939;43.596;1.320;2023-05-29T15:56:04;36.40;5.20
27506;DHT22;14939;43.596;1.320;2023-05-29T15:58:29;36.60;3.50
27506;DHT22;14939;43.596;1.320;2023-05-29T16:00:55;36.40;5.20
27506;DHT22;14939;43.596;1.320;2023-05-29T16:03:21;36.50;4.30
27506;DHT22;14939;43.596;1.320;2023-05-29T16:05:46;35.90;5.50
27506;DHT22;14939;43.596;1.320;2023-05-29T16:08:12;36.00;5.00
27506;DHT22;14939;43.596;1.320;2023-05-29T16:10:38;35.80;5.00
27506;DHT22;14939;43.596;1.320;2023-05-29T16:13:06;35.50;5.40